createdAt,value
2022-10-17T00:00:01.507Z,101509.53
2022-10-17T00:02:28.065Z,101490.44
2022-10-17T00:04:54.527Z,101487.72
2022-10-17T00:07:21.185Z,101493.16
2022-10-17T00:09:47.686Z,101475.16
2022-10-17T00:12:14.197Z,101484.41
2022-10-17T00:14:40.699Z,101491.53
2022-10-17T00:17:07.184Z,101480.88
2022-10-17T00:19:33.831Z,101470.78
2022-10-17T00:22:00.439Z,101478.97
2022-10-17T00:24:26.874Z,101482.53
2022-10-17T00:26:53.388Z,101475.16
2022-10-17T00:29:19.922Z,101469.97
2022-10-17T00:31:46.532Z,101472.69
2022-10-17T00:34:13.070Z,101468.34
2022-10-17T00:36:39.549Z,101467.53
2022-10-17T00:39:06.159Z,101471.06
2022-10-17T00:41:34.617Z,101468.34
2022-10-17T00:47:15.524Z,101487.44
2022-10-17T00:49:42.223Z,101473.00
2022-10-17T00:52:13.497Z,101485.53
2022-10-17T00:54:45.926Z,101475.97
2022-10-17T00:57:13.111Z,101479.25
2022-10-17T00:59:41.668Z,101472.19
2022-10-17T01:02:18.579Z,101473.00
2022-10-17T01:04:48.265Z,101470.25
2022-10-17T01:07:15.171Z,101464.00
2022-10-17T01:09:44.093Z,101457.72
2022-10-17T01:12:29.222Z,101456.88
2022-10-17T01:14:55.851Z,101446.81
2022-10-17T01:17:30.831Z,101448.72
2022-10-17T01:20:19.274Z,101438.66
2022-10-17T01:23:18.111Z,101438.66
2022-10-17T01:26:22.207Z,101433.44
2022-10-17T01:28:48.588Z,101449.00
2022-10-17T01:31:25.791Z,101438.09
2022-10-17T01:34:00.392Z,101440.00
2022-10-17T01:36:37.030Z,101445.44
2022-10-17T01:39:43.928Z,101445.44
2022-10-17T01:42:26.662Z,101443.53
2022-10-17T01:44:57.355Z,101434.53
2022-10-17T01:47:27.983Z,101432.63
2022-10-17T01:49:56.404Z,101428.28
2022-10-17T01:52:27.958Z,101423.63
2022-10-17T01:55:10.146Z,101426.38
2022-10-17T01:57:41.102Z,101424.47
2022-10-17T02:00:13.091Z,101417.38
2022-10-17T02:02:41.353Z,101428.28
2022-10-17T02:05:08.666Z,101415.47
2022-10-17T02:07:35.355Z,101411.13
2022-10-17T02:10:04.499Z,101405.66
2022-10-17T02:12:38.558Z,101408.38
2022-10-17T02:15:20.599Z,101409.19
2022-10-17T02:17:49.830Z,101402.94
2022-10-17T02:20:30.206Z,101406.47
2022-10-17T02:23:11.793Z,101393.91
2022-10-17T02:25:42.131Z,101401.28
2022-10-17T02:28:17.767Z,101396.91
2022-10-17T02:30:47.134Z,101404.00
2022-10-17T02:33:31.749Z,101407.00
2022-10-17T02:36:01.795Z,101407.81
2022-10-17T02:38:30.579Z,101404.00
2022-10-17T02:40:57.764Z,101405.09
2022-10-17T02:43:24.929Z,101407.00
2022-10-17T02:45:52.637Z,101417.91
2022-10-17T02:48:29.269Z,101427.72
2022-10-17T02:51:01.726Z,101423.38
2022-10-17T02:53:59.322Z,101423.38
2022-10-17T02:56:29.215Z,101434.28
2022-10-17T02:58:59.100Z,101419.84
2022-10-17T03:01:26.344Z,101428.81
2022-10-17T03:04:14.138Z,101419.03
2022-10-17T03:06:41.596Z,101428.00
2022-10-17T03:09:08.563Z,101420.94
2022-10-17T03:11:35.053Z,101434.56
2022-10-17T03:14:01.828Z,101428.25
2022-10-17T03:16:28.292Z,101428.25
2022-10-17T03:18:54.804Z,101429.91
2022-10-17T03:21:21.375Z,101441.09
2022-10-17T03:23:47.909Z,101429.38
2022-10-17T03:26:14.407Z,101424.72
2022-10-17T03:28:40.971Z,101430.19
2022-10-17T03:31:09.538Z,101432.09
2022-10-17T03:33:37.482Z,101430.19
2022-10-17T03:36:09.052Z,101432.09
2022-10-17T03:38:35.964Z,101434.81
2022-10-17T03:41:04.030Z,101437.53
2022-10-17T03:43:30.976Z,101438.66
2022-10-17T03:45:58.826Z,101431.28
2022-10-17T03:48:26.141Z,101447.63
2022-10-17T03:50:53.221Z,101441.91
2022-10-17T03:53:19.726Z,101448.19
2022-10-17T03:55:46.253Z,101450.91
2022-10-17T03:58:12.879Z,101441.91
2022-10-17T04:00:39.428Z,101438.38
2022-10-17T04:03:05.930Z,101441.91
2022-10-17T04:05:32.422Z,101443.53
2022-10-17T04:08:01.068Z,101443.53
2022-10-17T04:10:30.975Z,101451.72
2022-10-17T04:12:57.423Z,101444.63
2022-10-17T04:15:23.895Z,101448.19
2022-10-17T04:17:50.411Z,101453.63
2022-10-17T04:20:17.013Z,101462.91
2022-10-17T04:22:43.523Z,101453.09
2022-10-17T04:25:10.055Z,101457.44
2022-10-17T04:27:36.619Z,101457.72
2022-10-17T04:30:03.688Z,101456.63
2022-10-17T04:32:30.340Z,101468.59
2022-10-17T04:34:56.940Z,101458.56
2022-10-17T04:37:23.448Z,101457.72
2022-10-17T04:39:49.888Z,101464.00
2022-10-17T04:42:16.434Z,101456.63
2022-10-17T04:44:43.061Z,101459.63
2022-10-17T04:47:09.702Z,101464.00
2022-10-17T04:49:36.213Z,101462.34
2022-10-17T04:52:02.730Z,101465.06
2022-10-17T04:54:29.312Z,101457.72
2022-10-17T04:56:55.774Z,101463.16
2022-10-17T04:59:22.244Z,101472.44
2022-10-17T05:01:49.515Z,101472.44
2022-10-17T05:04:16.510Z,101478.69
2022-10-17T05:06:44.588Z,101486.06
2022-10-17T05:09:11.142Z,101487.69
2022-10-17T05:11:37.625Z,101487.97
2022-10-17T05:14:04.100Z,101484.16
2022-10-17T05:16:30.969Z,101486.06
2022-10-17T05:18:58.784Z,101473.53
2022-10-17T05:21:27.829Z,101488.78
2022-10-17T05:23:54.528Z,101484.44
2022-10-17T05:26:22.348Z,101477.06
2022-10-17T05:28:49.328Z,101480.91
2022-10-17T05:31:16.103Z,101473.53
2022-10-17T05:33:42.698Z,101476.25
2022-10-17T05:36:09.492Z,101482.53
2022-10-17T05:38:36.270Z,101484.44
2022-10-17T05:41:05.114Z,101480.09
2022-10-17T05:43:33.020Z,101478.16
2022-10-17T05:46:02.380Z,101482.81
2022-10-17T05:48:28.858Z,101480.91
2022-10-17T05:51:00.912Z,101484.44
2022-10-17T05:53:31.198Z,101473.81
2022-10-17T05:56:03.733Z,101488.25
2022-10-17T06:01:18.006Z,101496.44
2022-10-17T06:03:44.583Z,101507.34
2022-10-17T06:06:13.688Z,101494.78
2022-10-17T06:08:40.265Z,101499.16
2022-10-17T06:11:09.938Z,101504.88
2022-10-17T06:13:37.854Z,101514.72
2022-10-17T06:16:04.652Z,101514.72
2022-10-17T06:18:31.150Z,101515.78
2022-10-17T06:21:09.561Z,101521.22
2022-10-17T06:23:36.107Z,101520.97
2022-10-17T06:26:05.502Z,101521.22
2022-10-17T06:28:32.139Z,101520.41
2022-10-17T06:30:58.678Z,101531.06
2022-10-17T06:33:25.321Z,101525.84
2022-10-17T06:35:55.969Z,101525.84
2022-10-17T06:38:22.909Z,101521.22
2022-10-17T06:40:49.597Z,101523.13
2022-10-17T06:43:16.366Z,101528.34
2022-10-17T06:45:42.838Z,101526.69
2022-10-17T06:48:09.506Z,101519.31
2022-10-17T06:50:35.982Z,101538.38
2022-10-17T06:53:02.607Z,101553.13
2022-10-17T06:55:29.288Z,101573.81
2022-10-17T06:57:56.239Z,101578.47
2022-10-17T07:00:23.519Z,101591.28
2022-10-17T07:02:50.065Z,101610.34
2022-10-17T07:05:16.932Z,101613.91
2022-10-17T07:07:44.851Z,101621.25
2022-10-17T07:10:13.200Z,101633.25
2022-10-17T07:12:39.756Z,101659.41
2022-10-17T07:15:06.548Z,101654.78
2022-10-17T07:17:33.197Z,101665.69
2022-10-17T07:19:59.873Z,101667.34
2022-10-17T07:22:26.592Z,101680.97
2022-10-17T07:24:53.106Z,101699.22
2022-10-17T07:27:19.847Z,101697.56
2022-10-17T07:29:46.360Z,101711.22
2022-10-17T07:32:12.879Z,101716.66
2022-10-17T07:34:39.399Z,101716.94
2022-10-17T07:37:07.027Z,101725.13
2022-10-17T07:39:35.613Z,101736.84
2022-10-17T07:42:02.295Z,101738.75
2022-10-17T07:44:28.828Z,101742.28
2022-10-17T07:46:55.282Z,101748.56
2022-10-17T07:49:21.825Z,101739.56
2022-10-17T07:51:48.623Z,101751.56
2022-10-17T07:54:15.371Z,101757.00
2022-10-17T07:56:41.982Z,101757.81
2022-10-17T07:59:09.525Z,101757.53
2022-10-17T08:01:36.948Z,101751.56
2022-10-17T08:04:03.500Z,101757.81
2022-10-17T08:06:30.089Z,101766.00
2022-10-17T08:08:57.883Z,101746.09
2022-10-17T08:11:25.416Z,101746.09
2022-10-17T08:13:51.995Z,101725.94
2022-10-17T08:16:18.763Z,101727.03
2022-10-17T08:18:45.443Z,101736.03
2022-10-17T08:21:13.474Z,101752.09
2022-10-17T08:23:40.575Z,101767.91
2022-10-17T08:26:10.638Z,101737.09
2022-10-17T08:28:39.482Z,101721.56
2022-10-17T08:31:09.071Z,101707.94
2022-10-17T08:33:35.758Z,101707.94
2022-10-17T08:36:03.445Z,101697.84
2022-10-17T08:38:34.917Z,101698.69
2022-10-17T08:41:06.787Z,101722.63
2022-10-17T08:43:48.508Z,101728.91
2022-10-17T08:48:49.548Z,101733.81
2022-10-17T08:51:21.541Z,101745.81
2022-10-17T08:53:54.081Z,101763.81
2022-10-17T08:56:49.697Z,101762.97
2022-10-17T08:59:17.101Z,101771.69
2022-10-17T09:02:03.299Z,101773.38
2022-10-17T09:04:45.503Z,101760.78
2022-10-17T09:07:41.960Z,101751.81
2022-10-17T09:10:30.149Z,101748.25
2022-10-17T09:13:02.830Z,101755.34
2022-10-17T09:15:51.531Z,101762.47
2022-10-17T09:18:33.879Z,101755.63
2022-10-17T09:21:21.888Z,101769.78
2022-10-17T09:23:53.212Z,101772.28
2022-10-17T09:26:26.828Z,101789.72
2022-10-17T09:28:59.099Z,101788.34
2022-10-17T09:31:34.912Z,101807.94
2022-10-17T09:34:03.136Z,101826.22
2022-10-17T09:36:33.217Z,101824.59
2022-10-17T09:39:12.662Z,101828.69
2022-10-17T09:41:47.498Z,101824.06
2022-10-17T09:44:32.982Z,101831.72
2022-10-17T09:47:24.078Z,101841.22
2022-10-17T09:49:51.913Z,101836.88
2022-10-17T09:52:24.487Z,101840.44
2022-10-17T09:54:59.826Z,101852.97
2022-10-17T09:57:26.445Z,101862.00
2022-10-17T10:00:01.774Z,101866.59
2022-10-17T10:02:30.937Z,101869.09
2022-10-17T10:05:06.357Z,101868.00
2022-10-17T10:07:37.010Z,101863.66
2022-10-17T10:10:06.495Z,101876.22
2022-10-17T10:12:38.798Z,101878.09
2022-10-17T10:15:38.129Z,101884.66
2022-10-17T10:18:24.543Z,101896.38
2022-10-17T10:21:05.107Z,101907.84
2022-10-17T10:23:31.521Z,101903.50
2022-10-17T10:26:17.819Z,101899.38
2022-10-17T10:28:55.706Z,101909.69
2022-10-17T10:31:33.906Z,101906.16
2022-10-17T10:34:11.789Z,101921.69
2022-10-17T10:36:52.441Z,101920.06
2022-10-17T10:42:39.487Z,101924.69
2022-10-17T10:45:35.951Z,101921.97
2022-10-17T10:48:34.269Z,101929.31
2022-10-17T10:51:16.443Z,101934.75
2022-10-17T10:54:12.242Z,101933.69
2022-10-17T10:56:48.719Z,101924.69
2022-10-17T10:59:30.230Z,101931.78
2022-10-17T11:01:56.680Z,101926.56
2022-10-17T11:04:45.020Z,101919.50
2022-10-17T11:07:15.241Z,101911.31
2022-10-17T11:09:56.426Z,101943.78
2022-10-17T11:12:28.926Z,101936.66
2022-10-17T11:15:20.230Z,101942.13
2022-10-17T11:18:02.831Z,101960.38
2022-10-17T11:21:00.696Z,101957.41
2022-10-17T11:24:09.098Z,101971.28
2022-10-17T11:26:44.028Z,101976.50
2022-10-17T11:29:13.238Z,101985.72
2022-10-17T11:31:47.348Z,101985.72
2022-10-17T11:34:23.993Z,101996.41
2022-10-17T11:36:54.816Z,102000.19
2022-10-17T11:39:41.134Z,101999.13
2022-10-17T11:42:14.476Z,102004.81
2022-10-17T11:44:42.445Z,102008.38
2022-10-17T11:47:32.746Z,102012.75
2022-10-17T11:53:04.329Z,102018.22
2022-10-17T11:55:32.431Z,102017.13
2022-10-17T11:58:43.469Z,102020.13
2022-10-17T12:01:21.880Z,102022.84
2022-10-17T12:03:53.363Z,102022.56
2022-10-17T12:06:35.096Z,102029.94
2022-10-17T12:09:25.817Z,102032.66
2022-10-17T12:11:58.350Z,102028.03
2022-10-17T12:14:33.894Z,102036.47
2022-10-17T12:17:01.881Z,102052.56
2022-10-17T12:19:32.538Z,102042.47
2022-10-17T12:22:21.693Z,102037.84
2022-10-17T12:24:55.808Z,102046.59
2022-10-17T12:27:34.308Z,102051.22
2022-10-17T12:30:07.733Z,102046.00
2022-10-17T12:33:00.588Z,102056.09
2022-10-17T12:35:24.101Z,102059.66
2022-10-17T12:37:50.560Z,102066.19
2022-10-17T12:40:35.473Z,102062.38
2022-10-17T12:46:08.962Z,102067.81
2022-10-17T12:48:38.484Z,102079.81
2022-10-17T12:51:35.407Z,102082.03
2022-10-17T12:54:12.515Z,102077.91
2022-10-17T12:56:45.699Z,102094.28
2022-10-17T12:59:26.120Z,102096.19
2022-10-17T13:01:59.428Z,102091.31
2022-10-17T13:04:28.352Z,102090.72
2022-10-17T13:06:58.722Z,102104.34
2022-10-17T13:09:25.241Z,102088.00
2022-10-17T13:11:53.950Z,102088.81
2022-10-17T13:14:23.071Z,102100.00
2022-10-17T13:16:56.298Z,102098.09
2022-10-17T13:19:26.022Z,102103.28
2022-10-17T13:22:06.504Z,102111.72
2022-10-17T13:24:40.901Z,102103.78
2022-10-17T13:27:28.574Z,102097.00
2022-10-17T13:29:57.562Z,102105.19
2022-10-17T13:32:25.920Z,102101.63
2022-10-17T13:35:11.063Z,102112.03
2022-10-17T13:37:40.416Z,102106.81
2022-10-17T13:40:30.692Z,102099.50
2022-10-17T13:42:56.829Z,102106.00
2022-10-17T13:45:29.544Z,102100.53
2022-10-17T13:47:56.756Z,102102.75
2022-10-17T13:50:44.832Z,102103.03
2022-10-17T13:53:33.467Z,102112.84
2022-10-17T13:56:27.401Z,102105.50
2022-10-17T13:59:00.104Z,102113.66
2022-10-17T14:01:28.838Z,102119.13
2022-10-17T14:04:07.824Z,102123.47
2022-10-17T14:06:46.390Z,102130.59
2022-10-17T14:09:30.104Z,102145.88
2022-10-17T14:12:11.090Z,102152.97
2022-10-17T14:15:05.216Z,102145.88
2022-10-17T14:17:28.828Z,102160.34
2022-10-17T14:20:08.175Z,102152.41
2022-10-17T14:22:50.584Z,102150.50
2022-10-17T14:25:55.259Z,102150.75
2022-10-17T14:28:23.161Z,102159.50
2022-10-17T14:30:57.219Z,102155.97
2022-10-17T14:33:30.205Z,102146.97
2022-10-17T14:36:02.634Z,102152.16
2022-10-17T14:38:30.336Z,102150.25
2022-10-17T14:41:30.292Z,102159.25
2022-10-17T14:44:03.309Z,102172.88
2022-10-17T14:46:29.972Z,102159.50
2022-10-17T14:49:06.847Z,102154.06
2022-10-17T14:51:44.724Z,102157.59
2022-10-17T14:54:26.470Z,102157.59
2022-10-17T14:56:55.032Z,102157.59
2022-10-17T14:59:52.373Z,102175.88
2022-10-17T15:02:13.389Z,102169.09
2022-10-17T15:04:40.014Z,102176.41
2022-10-17T15:07:06.548Z,102190.06
2022-10-17T15:09:33.062Z,102191.97
2022-10-17T15:12:06.921Z,102191.97
2022-10-17T15:14:33.410Z,102190.31
2022-10-17T15:17:00.611Z,102193.88
2022-10-17T15:19:27.092Z,102198.25
2022-10-17T15:21:53.541Z,102203.97
2022-10-17T15:24:19.996Z,102204.78
2022-10-17T15:26:46.501Z,102215.69
2022-10-17T15:29:16.257Z,102205.59
2022-10-17T15:31:42.811Z,102223.88
2022-10-17T15:34:09.262Z,102212.13
2022-10-17T15:36:48.490Z,102221.13
2022-10-17T15:39:15.018Z,102221.13
2022-10-17T15:41:41.573Z,102227.41
2022-10-17T15:44:08.168Z,102223.03
2022-10-17T15:46:35.971Z,102232.03
2022-10-17T15:49:05.910Z,102227.69
2022-10-17T15:51:32.381Z,102236.13
2022-10-17T15:54:01.424Z,102235.88
2022-10-17T15:56:31.886Z,102241.59
2022-10-17T15:58:58.916Z,102229.59
2022-10-17T16:01:28.329Z,102238.84
2022-10-17T16:03:55.275Z,102233.41
2022-10-17T16:06:22.934Z,102239.91
2022-10-17T16:08:50.578Z,102244.03
2022-10-17T16:11:21.872Z,102243.22
2022-10-17T16:13:54.086Z,102249.75
2022-10-17T16:16:22.198Z,102247.84
2022-10-17T16:18:49.219Z,102260.41
2022-10-17T16:21:17.244Z,102251.41
2022-10-17T16:23:44.158Z,102253.88
2022-10-17T16:26:14.060Z,102263.13
2022-10-17T16:28:46.066Z,102269.41
2022-10-17T16:31:24.123Z,102266.69
2022-10-17T16:33:52.979Z,102266.94
2022-10-17T16:36:20.374Z,102271.31
2022-10-17T16:38:47.807Z,102278.66
2022-10-17T16:41:26.060Z,102277.84
2022-10-17T16:43:54.571Z,102282.72
2022-10-17T16:46:22.242Z,102277.03
2022-10-17T16:48:48.832Z,102277.53
2022-10-17T16:51:18.224Z,102287.94
2022-10-17T16:53:46.294Z,102286.25
2022-10-17T16:56:15.923Z,102280.00
2022-10-17T16:58:43.144Z,102287.94
2022-10-17T17:01:13.157Z,102289.81
2022-10-17T17:03:42.399Z,102290.91
2022-10-17T17:06:12.675Z,102289.25
2022-10-17T17:08:39.277Z,102316.25
2022-10-17T17:11:10.586Z,102300.97
2022-10-17T17:13:37.621Z,102298.25
2022-10-17T17:16:07.162Z,102300.16
2022-10-17T17:18:33.814Z,102302.31
2022-10-17T17:21:05.484Z,102304.78
2022-10-17T17:23:34.937Z,102313.22
2022-10-17T17:26:07.651Z,102312.38
2022-10-17T17:28:35.487Z,102320.06
2022-10-17T17:31:02.293Z,102321.16
2022-10-17T17:33:30.164Z,102326.03
2022-10-17T17:36:01.352Z,102318.66
2022-10-17T17:38:33.306Z,102328.75
2022-10-17T17:41:00.037Z,102322.47
2022-10-17T17:43:26.645Z,102326.84
2022-10-17T17:45:53.507Z,102335.03
2022-10-17T17:48:20.385Z,102332.28
2022-10-17T17:50:47.042Z,102334.19
2022-10-17T17:53:15.658Z,102336.09
2022-10-17T17:55:42.326Z,102334.47
2022-10-17T17:58:09.440Z,102335.53
2022-10-17T18:00:36.312Z,102337.19
2022-10-17T18:03:03.024Z,102336.09
2022-10-17T18:05:30.049Z,102338.00
2022-10-17T18:07:56.594Z,102339.91
2022-10-17T18:10:23.377Z,102343.69
2022-10-17T18:12:49.879Z,102350.81
2022-10-17T18:15:16.472Z,102349.16
2022-10-17T18:17:43.174Z,102352.72
2022-10-17T18:20:10.295Z,102360.91
2022-10-17T18:22:36.830Z,102351.06
2022-10-17T18:25:03.621Z,102351.06
2022-10-17T18:27:30.186Z,102345.59
2022-10-17T18:29:56.695Z,102351.06
2022-10-17T18:32:23.221Z,102359.25
2022-10-17T18:34:49.783Z,102360.31
2022-10-17T18:37:16.304Z,102357.84
2022-10-17T18:39:42.839Z,102368.50
2022-10-17T18:42:09.396Z,102354.88
2022-10-17T18:44:35.873Z,102369.59
2022-10-17T18:47:04.230Z,102366.03
2022-10-17T18:49:31.346Z,102380.50
2022-10-17T18:51:59.471Z,102377.75
2022-10-17T18:54:25.961Z,102369.59
2022-10-17T18:56:54.296Z,102370.41
2022-10-17T18:59:21.169Z,102366.84
2022-10-17T19:01:48.742Z,102366.03
2022-10-17T19:04:15.760Z,102366.03
2022-10-17T19:06:43.158Z,102380.72
2022-10-17T19:09:12.234Z,102378.84
2022-10-17T19:11:39.236Z,102378.84
2022-10-17T19:14:13.021Z,102389.97
2022-10-17T19:16:43.136Z,102378.84
2022-10-17T19:19:18.375Z,102390.81
2022-10-17T19:21:45.396Z,102398.16
2022-10-17T19:24:21.166Z,102398.16
2022-10-17T19:26:53.408Z,102409.88
2022-10-17T19:29:21.755Z,102389.97
2022-10-17T19:31:48.771Z,102397.09
2022-10-17T19:34:16.570Z,102388.34
2022-10-17T19:36:43.832Z,102391.06
2022-10-17T19:39:13.600Z,102406.59
2022-10-17T19:41:41.476Z,102410.16
2022-10-17T19:44:07.950Z,102404.69
2022-10-17T19:46:35.177Z,102410.16
2022-10-17T19:49:02.567Z,102406.34
2022-10-17T19:51:29.304Z,102410.38
2022-10-17T19:54:00.315Z,102409.34
2022-10-17T19:56:28.956Z,102420.47
2022-10-17T19:58:56.190Z,102417.75
2022-10-17T20:01:25.828Z,102418.56
2022-10-17T20:03:53.250Z,102415.28
2022-10-17T20:06:20.720Z,102416.91
2022-10-17T20:08:48.150Z,102420.72
2022-10-17T20:11:20.377Z,102418.81
2022-10-17T20:13:47.662Z,102423.47
2022-10-17T20:16:17.536Z,102438.72
2022-10-17T20:18:44.449Z,102442.28
2022-10-17T20:21:14.410Z,102440.13
2022-10-17T20:23:41.849Z,102440.69
2022-10-17T20:26:25.925Z,102447.81
2022-10-17T20:29:04.080Z,102453.28
2022-10-17T20:31:30.894Z,102452.47
2022-10-17T20:33:59.466Z,102452.47
2022-10-17T20:36:26.760Z,102447.00
2022-10-17T20:38:55.067Z,102451.38
2022-10-17T20:41:22.116Z,102455.19
2022-10-17T20:43:51.417Z,102456.00
2022-10-17T20:46:29.776Z,102462.50
2022-10-17T20:49:01.896Z,102455.19
2022-10-17T20:51:28.588Z,102459.78
2022-10-17T20:56:29.641Z,102460.63
2022-10-17T20:59:01.458Z,102472.38
2022-10-17T21:01:29.458Z,102474.28
2022-10-17T21:03:59.629Z,102476.16
2022-10-17T21:06:27.245Z,102477.22
2022-10-17T21:08:55.420Z,102476.41
2022-10-17T21:11:24.669Z,102487.03
2022-10-17T21:13:58.003Z,102495.47
2022-10-17T21:16:25.843Z,102509.72
2022-10-17T21:18:52.714Z,102503.41
2022-10-17T21:21:23.434Z,102502.59
2022-10-17T21:23:51.030Z,102506.38
2022-10-17T21:26:18.462Z,102508.03
2022-10-17T21:28:47.152Z,102509.94
2022-10-17T21:31:17.545Z,102527.38
2022-10-17T21:33:47.551Z,102518.13
2022-10-17T21:36:16.766Z,102523.84
2022-10-17T21:38:45.353Z,102523.84
2022-10-17T21:41:13.879Z,102521.09
2022-10-17T21:43:41.139Z,102520.84
2022-10-17T21:46:11.455Z,102518.13
2022-10-17T21:48:38.553Z,102529.84
2022-10-17T21:51:07.988Z,102522.75
2022-10-17T21:53:34.905Z,102524.66
2022-10-17T21:56:02.900Z,102515.66
2022-10-17T21:58:30.111Z,102516.47
2022-10-17T22:01:12.756Z,102509.38
2022-10-17T22:03:44.216Z,102510.19
2022-10-17T22:06:38.635Z,102519.44
2022-10-17T22:09:02.847Z,102537.47
2022-10-17T22:11:31.391Z,102545.63
2022-10-17T22:14:03.894Z,102532.25
2022-10-17T22:16:30.526Z,102555.72
2022-10-17T22:19:05.881Z,102541.25
2022-10-17T22:21:35.101Z,102538.50
2022-10-17T22:24:04.221Z,102537.69
2022-10-17T22:26:32.282Z,102541.25
2022-10-17T22:28:58.836Z,102526.78
2022-10-17T22:31:25.789Z,102537.69
2022-10-17T22:33:52.625Z,102524.06
2022-10-17T22:36:19.335Z,102528.69
2022-10-17T22:38:45.903Z,102532.50
2022-10-17T22:41:12.351Z,102536.88
2022-10-17T22:43:38.893Z,102536.03
2022-10-17T22:46:06.805Z,102539.84
2022-10-17T22:48:33.879Z,102546.94
2022-10-17T22:51:01.273Z,102548.84
2022-10-17T22:53:29.395Z,102536.31
2022-10-17T22:56:05.250Z,102546.13
2022-10-17T22:58:34.576Z,102537.13
2022-10-17T23:01:01.837Z,102539.84
2022-10-17T23:03:29.479Z,102541.50
2022-10-17T23:05:56.693Z,102539.03
2022-10-17T23:08:23.930Z,102552.66
2022-10-17T23:10:50.460Z,102553.47
2022-10-17T23:13:17.125Z,102565.47
2022-10-17T23:15:43.596Z,102551.84
2022-10-17T23:18:10.185Z,102555.38
2022-10-17T23:20:37.666Z,102552.66
2022-10-17T23:23:04.617Z,102547.22
2022-10-17T23:25:33.730Z,102551.00
2022-10-17T23:28:00.721Z,102551.00
2022-10-17T23:30:27.414Z,102546.38
2022-10-17T23:32:53.952Z,102549.34
2022-10-17T23:35:20.489Z,102549.34
2022-10-17T23:37:46.958Z,102558.34
2022-10-17T23:40:13.452Z,102541.16
2022-10-17T23:42:39.942Z,102547.44
2022-10-17T23:45:07.149Z,102544.16
2022-10-17T23:47:33.903Z,102551.25
2022-10-17T23:50:00.586Z,102544.16
2022-10-17T23:52:27.167Z,102547.69
2022-10-17T23:54:53.976Z,102544.97
2022-10-17T23:57:20.536Z,102552.31
2022-10-17T23:59:47.197Z,102555.06
